createdAt,value
2022-12-17T00:01:26.087Z,99702.00
2022-12-17T00:04:46.818Z,99684.19
2022-12-17T00:08:15.654Z,99661.25
2022-12-17T00:11:39.038Z,99660.19
2022-12-17T00:14:59.723Z,99664.56
2022-12-17T00:18:25.414Z,99679.03
2022-12-17T00:21:46.113Z,99668.22
2022-12-17T00:25:06.862Z,99660.16
2022-12-17T00:28:29.475Z,99677.94
2022-12-17T00:31:50.201Z,99623.53
2022-12-17T00:35:11.209Z,99636.00
2022-12-17T00:38:37.196Z,99686.16
2022-12-17T00:41:57.973Z,99649.50
2022-12-17T00:45:18.684Z,99687.00
2022-12-17T00:48:40.647Z,99679.59
2022-12-17T00:52:01.265Z,99681.28
2022-12-17T00:55:25.318Z,99644.91
2022-12-17T00:58:46.358Z,99637.78
2022-12-17T01:02:07.203Z,99672.69
2022-12-17T01:05:29.676Z,99645.66
2022-12-17T01:08:50.763Z,99636.97
2022-12-17T01:12:11.503Z,99618.47
2022-12-17T01:15:32.948Z,99606.06
2022-12-17T01:18:53.881Z,99611.25
2022-12-17T01:22:17.264Z,99640.72
2022-12-17T01:25:37.819Z,99643.53
2022-12-17T01:28:59.195Z,99613.50
2022-12-17T01:32:20.363Z,99646.72
2022-12-17T01:35:44.008Z,99679.66
2022-12-17T01:39:21.579Z,99655.72
2022-12-17T01:42:42.658Z,99671.31
2022-12-17T01:46:08.439Z,99702.41
2022-12-17T01:49:30.698Z,99628.41
2022-12-17T01:52:51.459Z,99676.53
2022-12-17T01:56:14.535Z,99655.84
2022-12-17T01:59:40.397Z,99649.72
2022-12-17T02:03:02.030Z,99646.41
2022-12-17T02:06:30.934Z,99710.13
2022-12-17T02:10:09.001Z,99677.50
2022-12-17T02:13:40.364Z,99682.69
2022-12-17T02:17:07.711Z,99676.75
2022-12-17T02:20:50.418Z,99706.38
2022-12-17T02:24:26.582Z,99720.91
2022-12-17T02:27:49.255Z,99713.59
2022-12-17T02:31:11.811Z,99722.94
2022-12-17T02:34:33.106Z,99723.81
2022-12-17T02:37:54.150Z,99729.25
2022-12-17T02:41:15.219Z,99733.59
2022-12-17T02:44:39.018Z,99724.88
2022-12-17T02:48:03.248Z,99710.63
2022-12-17T02:51:24.363Z,99712.50
2022-12-17T02:54:50.469Z,99688.16
2022-12-17T02:58:14.067Z,99680.69
2022-12-17T03:01:35.458Z,99681.63
2022-12-17T03:05:06.618Z,99720.78
2022-12-17T03:08:41.965Z,99728.19
2022-12-17T03:12:02.969Z,99730.19
2022-12-17T03:15:24.186Z,99725.22
2022-12-17T03:18:44.875Z,99743.00
2022-12-17T03:22:05.575Z,99720.44
2022-12-17T03:25:26.802Z,99755.97
2022-12-17T03:28:47.517Z,99748.31
2022-12-17T03:32:08.462Z,99738.22
2022-12-17T03:35:29.214Z,99746.59
2022-12-17T03:38:49.964Z,99703.31
2022-12-17T03:42:10.634Z,99699.25
2022-12-17T03:45:31.825Z,99735.66
2022-12-17T03:48:52.526Z,99739.78
2022-12-17T03:52:13.598Z,99742.47
2022-12-17T03:55:34.779Z,99754.50
2022-12-17T03:58:55.370Z,99703.78
2022-12-17T04:02:16.995Z,99737.59
2022-12-17T04:05:37.802Z,99740.31
2022-12-17T04:08:58.581Z,99720.97
2022-12-17T04:12:19.389Z,99729.50
2022-12-17T04:15:40.111Z,99712.56
2022-12-17T04:19:01.250Z,99729.53
2022-12-17T04:22:22.369Z,99689.81
2022-12-17T04:25:43.218Z,99747.19
2022-12-17T04:29:04.241Z,99754.00
2022-12-17T04:32:24.894Z,99717.84
2022-12-17T04:35:45.472Z,99769.47
2022-12-17T04:39:06.097Z,99770.47
2022-12-17T04:42:27.274Z,99752.03
2022-12-17T04:45:47.939Z,99772.28
2022-12-17T04:49:08.803Z,99791.03
2022-12-17T04:52:29.627Z,99787.63
2022-12-17T04:55:50.278Z,99760.66
2022-12-17T04:59:11.106Z,99734.72
2022-12-17T05:02:31.932Z,99800.50
2022-12-17T05:05:52.654Z,99810.69
2022-12-17T05:09:13.326Z,99824.69
2022-12-17T05:12:34.168Z,99818.88
2022-12-17T05:15:54.834Z,99801.16
2022-12-17T05:19:16.270Z,99789.41
2022-12-17T05:22:37.537Z,99770.69
2022-12-17T05:25:58.182Z,99829.13
2022-12-17T05:29:19.158Z,99759.00
2022-12-17T05:32:40.230Z,99817.16
2022-12-17T05:36:00.962Z,99813.09
2022-12-17T05:39:22.210Z,99826.56
2022-12-17T05:42:42.939Z,99820.59
2022-12-17T05:46:04.811Z,99814.56
2022-12-17T05:49:25.452Z,99780.78
2022-12-17T05:52:46.129Z,99796.16
2022-12-17T05:56:08.694Z,99801.38
2022-12-17T05:59:29.345Z,99824.25
2022-12-17T06:02:50.074Z,99857.34
2022-12-17T06:06:15.535Z,99842.06
2022-12-17T06:09:37.204Z,99824.34
2022-12-17T06:12:57.937Z,99819.38
2022-12-17T06:16:18.763Z,99850.88
2022-12-17T06:19:39.567Z,99846.66
2022-12-17T06:23:00.201Z,99881.25
2022-12-17T06:26:20.746Z,99877.94
2022-12-17T06:29:41.442Z,99850.06
2022-12-17T06:33:02.161Z,99884.94
2022-12-17T06:36:23.471Z,99885.84
2022-12-17T06:39:44.391Z,99895.16
2022-12-17T06:43:15.136Z,99920.63
2022-12-17T06:46:35.993Z,99929.16
2022-12-17T06:50:01.281Z,99930.13
2022-12-17T06:53:24.979Z,99912.28
2022-12-17T06:56:46.569Z,99943.66
2022-12-17T07:00:07.226Z,99927.72
2022-12-17T07:03:30.441Z,99887.94
2022-12-17T07:06:55.903Z,99965.19
2022-12-17T07:10:19.174Z,99955.72
2022-12-17T07:13:40.185Z,99972.88
2022-12-17T07:17:01.050Z,99980.53
2022-12-17T07:20:22.423Z,99998.34
2022-12-17T07:23:43.171Z,99990.66
2022-12-17T07:27:03.855Z,99978.97
2022-12-17T07:30:25.362Z,99967.13
2022-12-17T07:33:46.055Z,99987.25
2022-12-17T07:37:12.365Z,99982.88
2022-12-17T07:40:35.634Z,99977.56
2022-12-17T07:43:56.307Z,99979.19
2022-12-17T07:47:17.302Z,100000.34
2022-12-17T07:50:38.198Z,99962.13
2022-12-17T07:53:59.195Z,100009.59
2022-12-17T07:57:23.531Z,99995.28
2022-12-17T08:00:49.270Z,100020.88
2022-12-17T08:04:10.833Z,100035.50
2022-12-17T08:07:31.470Z,99989.91
2022-12-17T08:10:52.282Z,100017.94
2022-12-17T08:14:13.817Z,100037.53
2022-12-17T08:17:34.405Z,100052.88
2022-12-17T08:20:55.245Z,100055.44
2022-12-17T08:24:16.427Z,100079.25
2022-12-17T08:27:44.702Z,100103.03
2022-12-17T08:31:08.929Z,100094.66
2022-12-17T08:34:29.703Z,100107.50
2022-12-17T08:37:50.321Z,100134.69
2022-12-17T08:41:11.022Z,100118.56
2022-12-17T08:44:31.554Z,100158.72
2022-12-17T08:47:52.350Z,100173.19
2022-12-17T08:51:13.550Z,100144.41
2022-12-17T08:54:34.524Z,100190.28
2022-12-17T08:57:55.110Z,100201.47
2022-12-17T09:01:19.556Z,100168.44
2022-12-17T09:04:40.180Z,100165.06
2022-12-17T09:08:00.866Z,100170.09
2022-12-17T09:11:22.122Z,100201.47
2022-12-17T09:14:43.272Z,100176.13
2022-12-17T09:18:04.494Z,100207.47
2022-12-17T09:21:26.775Z,100187.16
2022-12-17T09:24:48.143Z,100222.56
2022-12-17T09:28:08.701Z,100186.06
2022-12-17T09:31:32.372Z,100196.22
2022-12-17T09:34:57.642Z,100195.38
2022-12-17T09:38:18.735Z,100226.03
2022-12-17T09:41:53.583Z,100232.72
2022-12-17T09:45:25.742Z,100228.53
2022-12-17T09:49:05.128Z,100250.59
2022-12-17T09:52:45.899Z,100248.06
2022-12-17T09:56:09.973Z,100238.03
2022-12-17T09:59:46.940Z,100196.50
2022-12-17T10:03:15.904Z,100226.19
2022-12-17T10:06:40.965Z,100247.50
2022-12-17T10:10:03.701Z,100272.06
2022-12-17T10:13:38.628Z,100298.59
2022-12-17T10:17:11.441Z,100269.69
2022-12-17T10:20:36.345Z,100268.94
2022-12-17T10:23:57.053Z,100274.97
2022-12-17T10:27:18.275Z,100273.19
2022-12-17T10:30:39.474Z,100285.06
2022-12-17T10:34:01.138Z,100266.56
2022-12-17T10:37:22.849Z,100281.00
2022-12-17T10:40:53.846Z,100328.44
2022-12-17T10:44:22.250Z,100299.47
2022-12-17T10:47:45.418Z,100303.81
2022-12-17T10:51:06.555Z,100321.88
2022-12-17T10:54:49.068Z,100321.03
2022-12-17T10:58:10.887Z,100328.69
2022-12-17T11:01:42.859Z,100369.50
2022-12-17T11:05:12.144Z,100338.88
2022-12-17T11:08:36.538Z,100367.63
2022-12-17T11:12:11.696Z,100341.44
2022-12-17T11:15:41.455Z,100389.97
2022-12-17T11:19:16.084Z,100384.81
2022-12-17T11:23:11.266Z,100396.81
2022-12-17T11:26:34.346Z,100389.13
2022-12-17T11:29:55.132Z,100387.44
2022-12-17T11:33:29.485Z,100421.47
2022-12-17T11:37:09.248Z,100429.97
2022-12-17T11:40:57.304Z,100430.78
2022-12-17T11:44:33.161Z,100443.63
2022-12-17T11:48:12.960Z,100451.31
2022-12-17T11:52:05.958Z,100431.88
2022-12-17T11:55:26.610Z,100467.66
2022-12-17T11:59:12.112Z,100469.41
2022-12-17T12:02:51.424Z,100471.13
2022-12-17T12:06:17.293Z,100484.78
2022-12-17T12:10:03.454Z,100475.47
2022-12-17T12:13:45.440Z,100504.47
2022-12-17T12:17:36.898Z,100460.34
2022-12-17T12:21:19.663Z,100503.72
2022-12-17T12:25:08.043Z,100479.03
2022-12-17T12:28:41.343Z,100488.47
2022-12-17T12:32:16.852Z,100496.09
2022-12-17T12:35:42.624Z,100517.34
2022-12-17T12:39:04.023Z,100538.72
2022-12-17T12:42:33.830Z,100512.34
2022-12-17T12:46:08.379Z,100514.84
2022-12-17T12:50:00.159Z,100518.25
2022-12-17T12:53:21.710Z,100555.63
2022-12-17T12:56:54.346Z,100513.19
2022-12-17T13:00:15.971Z,100518.25
2022-12-17T13:03:44.276Z,100555.63
2022-12-17T13:06:49.644Z,100554.78
2022-12-17T13:09:56.107Z,100578.63
2022-12-17T13:13:10.610Z,100571.81
2022-12-17T13:16:24.826Z,100606.72
2022-12-17T13:19:38.907Z,100616.16
2022-12-17T13:23:05.617Z,100621.97
2022-12-17T13:26:42.998Z,100602.53
2022-12-17T13:29:45.469Z,100585.53
2022-12-17T13:32:59.767Z,100644.31
2022-12-17T13:36:07.478Z,100652.91
2022-12-17T13:39:47.480Z,100664.81
2022-12-17T13:42:50.325Z,100629.09
2022-12-17T13:45:55.803Z,100654.78
2022-12-17T13:49:02.915Z,100635.28
2022-12-17T13:52:16.609Z,100647.31
2022-12-17T13:55:25.488Z,100643.13
2022-12-17T13:58:31.521Z,100665.25
2022-12-17T14:01:44.716Z,100693.44
2022-12-17T14:04:53.052Z,100684.06
2022-12-17T14:08:00.004Z,100731.75
2022-12-17T14:11:21.243Z,100707.09
2022-12-17T14:14:35.552Z,100765.06
2022-12-17T14:17:49.899Z,100702.03
2022-12-17T14:20:54.701Z,100720.75
2022-12-17T14:23:57.894Z,100738.66
2022-12-17T14:27:00.967Z,100743.75
2022-12-17T14:30:20.931Z,100740.41
2022-12-17T14:33:34.906Z,100750.66
2022-12-17T14:36:40.285Z,100748.09
2022-12-17T14:39:46.577Z,100751.50
2022-12-17T14:42:49.476Z,100694.41
2022-12-17T14:46:16.368Z,100725.09
2022-12-17T14:49:21.129Z,100762.63
2022-12-17T14:52:47.786Z,100773.72
2022-12-17T14:55:57.334Z,100739.59
2022-12-17T14:58:59.726Z,100785.69
2022-12-17T15:02:11.787Z,100768.63
2022-12-17T15:05:15.819Z,100765.22
2022-12-17T15:08:18.572Z,100766.06
2022-12-17T15:11:22.485Z,100777.19
2022-12-17T15:14:24.822Z,100784.84
2022-12-17T15:17:27.147Z,100761.84
2022-12-17T15:20:29.583Z,100824.13
2022-12-17T15:23:32.319Z,100848.03
2022-12-17T15:26:34.732Z,100875.38
2022-12-17T15:29:37.150Z,100845.47
2022-12-17T15:32:39.613Z,100851.47
2022-12-17T15:35:42.829Z,100865.97
2022-12-17T15:38:46.363Z,100896.69
2022-12-17T15:42:09.546Z,100921.47
2022-12-17T15:45:11.945Z,100900.13
2022-12-17T15:48:17.154Z,100934.28
2022-12-17T15:51:21.092Z,100907.81
2022-12-17T15:54:25.164Z,100896.72
2022-12-17T15:57:27.487Z,100860.84
2022-12-17T16:00:30.140Z,100922.31
2022-12-17T16:03:33.643Z,100917.19
2022-12-17T16:06:36.247Z,100922.31
2022-12-17T16:09:38.884Z,100925.75
2022-12-17T16:12:41.649Z,100931.72
2022-12-17T16:15:44.139Z,100935.97
2022-12-17T16:18:46.695Z,100936.81
2022-12-17T16:21:49.812Z,100931.69
2022-12-17T16:24:52.689Z,100922.25
2022-12-17T16:27:55.119Z,100931.63
2022-12-17T16:31:08.851Z,100941.88
2022-12-17T16:34:11.742Z,100960.69
2022-12-17T16:37:14.248Z,100982.94
2022-12-17T16:40:16.902Z,100976.91
2022-12-17T16:43:19.335Z,100983.75
2022-12-17T16:46:29.058Z,100952.97
2022-12-17T16:49:31.698Z,100964.06
2022-12-17T16:52:35.034Z,100994.81
2022-12-17T16:56:00.242Z,100997.38
2022-12-17T16:59:05.036Z,100980.28
2022-12-17T17:02:16.461Z,101029.84
2022-12-17T17:05:18.900Z,101018.75
2022-12-17T17:08:21.773Z,101031.59
2022-12-17T17:11:25.558Z,101014.47
2022-12-17T17:14:27.957Z,101011.91
2022-12-17T17:17:54.256Z,101011.91
2022-12-17T17:20:52.727Z,101036.69
2022-12-17T17:24:15.490Z,101045.25
2022-12-17T17:27:22.582Z,101047.78
2022-12-17T17:30:24.914Z,101032.38
2022-12-17T17:33:30.805Z,101034.91
2022-12-17T17:36:33.278Z,101070.91
2022-12-17T17:39:35.854Z,101055.50
2022-12-17T17:42:38.303Z,101070.88
2022-12-17T17:45:42.985Z,101067.41
2022-12-17T17:48:49.819Z,101083.63
2022-12-17T17:52:11.635Z,101058.84
2022-12-17T17:55:14.671Z,101087.88
2022-12-17T17:58:17.317Z,101093.91
2022-12-17T18:01:23.704Z,101103.28
2022-12-17T18:04:26.138Z,101083.63
2022-12-17T18:07:28.681Z,101123.00
2022-12-17T18:10:31.886Z,101120.38
2022-12-17T18:13:53.454Z,101103.25
2022-12-17T18:16:55.805Z,101153.72
2022-12-17T18:19:58.193Z,101158.06
2022-12-17T18:23:00.670Z,101162.28
2022-12-17T18:26:07.062Z,101163.97
2022-12-17T18:29:12.639Z,101150.25
2022-12-17T18:32:15.001Z,101165.59
2022-12-17T18:35:17.465Z,101171.66
2022-12-17T18:38:20.026Z,101170.84
2022-12-17T18:41:41.474Z,101186.25
2022-12-17T18:44:43.814Z,101184.44
2022-12-17T18:47:46.496Z,101197.19
2022-12-17T18:50:48.899Z,101188.63
2022-12-17T18:53:52.299Z,101198.84
2022-12-17T18:57:01.608Z,101198.84
2022-12-17T19:00:05.901Z,101193.63
2022-12-17T19:03:10.099Z,101217.66
2022-12-17T19:06:12.807Z,101220.25
2022-12-17T19:09:21.079Z,101224.47
2022-12-17T19:12:23.826Z,101227.88
2022-12-17T19:15:26.222Z,101229.53
2022-12-17T19:18:28.653Z,101236.41
2022-12-17T19:21:33.866Z,101239.78
2022-12-17T19:24:36.325Z,101254.25
2022-12-17T19:27:39.214Z,101228.66
2022-12-17T19:30:41.682Z,101226.00
2022-12-17T19:33:44.052Z,101255.91
2022-12-17T19:36:47.702Z,101277.38
2022-12-17T19:39:50.343Z,101273.97
2022-12-17T19:42:55.363Z,101280.06
2022-12-17T19:46:06.194Z,101254.22
2022-12-17T19:49:11.874Z,101277.38
2022-12-17T19:52:16.199Z,101277.31
2022-12-17T19:55:20.838Z,101276.47
2022-12-17T19:58:24.650Z,101291.09
2022-12-17T20:01:35.529Z,101315.06
2022-12-17T20:04:38.108Z,101261.88
2022-12-17T20:07:40.611Z,101295.31
2022-12-17T20:10:43.829Z,101302.13
2022-12-17T20:13:49.998Z,101337.25
2022-12-17T20:16:59.248Z,101350.94
2022-12-17T20:20:01.647Z,101329.44
2022-12-17T20:23:04.394Z,101345.59
2022-12-17T20:26:09.626Z,101370.47
2022-12-17T20:29:12.335Z,101377.25
2022-12-17T20:32:19.422Z,101350.72
2022-12-17T20:35:22.178Z,101384.22
2022-12-17T20:38:24.611Z,101358.47
2022-12-17T20:41:29.242Z,101401.28
2022-12-17T20:44:31.926Z,101402.94
2022-12-17T20:47:34.488Z,101409.75
2022-12-17T20:50:40.886Z,101400.25
2022-12-17T20:53:43.545Z,101386.56
2022-12-17T20:56:46.078Z,101421.63
2022-12-17T20:59:48.491Z,101398.34
2022-12-17T21:02:51.186Z,101394.94
2022-12-17T21:05:53.555Z,101431.69
2022-12-17T21:08:56.544Z,101434.28
2022-12-17T21:11:59.688Z,101442.72
2022-12-17T21:15:02.154Z,101442.81
2022-12-17T21:18:04.855Z,101442.81
2022-12-17T21:21:10.753Z,101454.69
2022-12-17T21:24:13.212Z,101444.25
2022-12-17T21:27:17.263Z,101417.69
2022-12-17T21:30:22.090Z,101484.56
2022-12-17T21:33:24.868Z,101495.72
2022-12-17T21:36:28.886Z,101488.75
2022-12-17T21:39:31.396Z,101490.50
2022-12-17T21:42:52.203Z,101454.47
2022-12-17T21:45:57.720Z,101494.84
2022-12-17T21:49:01.766Z,101495.63
2022-12-17T21:52:04.740Z,101505.97
2022-12-17T21:55:09.857Z,101489.41
2022-12-17T21:58:12.629Z,101487.66
2022-12-17T22:01:19.834Z,101527.22
2022-12-17T22:04:24.082Z,101524.53
2022-12-17T22:07:36.182Z,101517.66
2022-12-17T22:10:52.083Z,101501.47
2022-12-17T22:14:18.808Z,101534.00
2022-12-17T22:17:23.114Z,101535.63
2022-12-17T22:20:25.512Z,101550.16
2022-12-17T22:23:28.011Z,101550.13
2022-12-17T22:26:31.078Z,101555.13
2022-12-17T22:29:51.913Z,101550.09
2022-12-17T22:32:59.795Z,101568.97
2022-12-17T22:37:38.724Z,101528.59
2022-12-17T22:42:39.967Z,101557.81
2022-12-17T22:44:49.262Z,101538.94
2022-12-17T22:46:31.810Z,101547.69
2022-12-17T22:49:34.210Z,101575.09
2022-12-17T22:52:36.587Z,101547.38
2022-12-17T22:55:39.414Z,101580.13
2022-12-17T22:58:42.258Z,101587.06
2022-12-17T23:01:45.121Z,101585.09
2022-12-17T23:04:47.652Z,101565.47
2022-12-17T23:07:50.746Z,101594.47
2022-12-17T23:10:53.098Z,101566.84
2022-12-17T23:13:56.189Z,101609.72
2022-12-17T23:16:58.591Z,101588.16
2022-12-17T23:20:01.090Z,101617.91
2022-12-17T23:23:03.459Z,101622.28
2022-12-17T23:26:08.555Z,101627.41
2022-12-17T23:29:19.370Z,101611.75
2022-12-17T23:32:22.262Z,101643.34
2022-12-17T23:35:24.607Z,101602.94
2022-12-17T23:38:26.967Z,101653.41
2022-12-17T23:41:30.607Z,101642.28
2022-12-17T23:44:32.955Z,101593.06
2022-12-17T23:47:35.340Z,101650.03
2022-12-17T23:50:37.651Z,101628.44
2022-12-17T23:53:40.759Z,101625.88
2022-12-17T23:56:44.882Z,101663.94
2022-12-17T23:59:47.234Z,101654.66
